sensor_id;sensor_type;location;lat;lon;timestamp;P1;durP1;ratioP1;P2;durP2;ratioP2
53411;SDS011;39307;52.870;13.660;2023-07-13T00:01:50;6.37;;;2.30;;
53411;SDS011;39307;52.870;13.660;2023-07-13T00:04:17;4.55;;;2.28;;
53411;SDS011;39307;52.870;13.660;2023-07-13T00:06:44;5.75;;;2.60;;
53411;SDS011;39307;52.870;13.660;2023-07-13T00:09:12;6.13;;;2.20;;
53411;SDS011;39307;52.870;13.660;2023-07-13T00:11:39;5.57;;;2.45;;
53411;SDS011;39307;52.870;13.660;2023-07-13T00:14:06;4.35;;;2.22;;
53411;SDS011;39307;52.870;13.660;2023-07-13T00:16:34;11.98;;;2.38;;
53411;SDS011;39307;52.870;13.660;2023-07-13T00:19:04;5.90;;;2.50;;
53411;SDS011;39307;52.870;13.660;2023-07-13T00:21:31;4.97;;;2.47;;
53411;SDS011;39307;52.870;13.660;2023-07-13T00:23:57;4.90;;;2.40;;
53411;SDS011;39307;52.870;13.660;2023-07-13T00:26:24;4.28;;;2.15;;
53411;SDS011;39307;52.870;13.660;2023-07-13T00:28:50;7.57;;;2.50;;
53411;SDS011;39307;52.870;13.660;2023-07-13T00:31:16;4.53;;;2.33;;
53411;SDS011;39307;52.870;13.660;2023-07-13T00:33:43;4.88;;;2.22;;
53411;SDS011;39307;52.870;13.660;2023-07-13T00:36:09;4.75;;;2.55;;
53411;SDS011;39307;52.870;13.660;2023-07-13T00:38:36;5.75;;;2.50;;
53411;SDS011;39307;52.870;13.660;2023-07-13T00:41:03;8.32;;;2.53;;
53411;SDS011;39307;52.870;13.660;2023-07-13T00:43:30;5.65;;;2.70;;
53411;SDS011;39307;52.870;13.660;2023-07-13T00:48:40;6.68;;;2.70;;
53411;SDS011;39307;52.870;13.660;2023-07-13T00:51:08;4.72;;;2.50;;
53411;SDS011;39307;52.870;13.660;2023-07-13T00:53:35;7.10;;;2.70;;
53411;SDS011;39307;52.870;13.660;2023-07-13T00:56:01;6.28;;;2.60;;
53411;SDS011;39307;52.870;13.660;2023-07-13T00:58:29;5.85;;;2.65;;
53411;SDS011;39307;52.870;13.660;2023-07-13T01:00:55;4.60;;;2.50;;
53411;SDS011;39307;52.870;13.660;2023-07-13T01:03:22;4.70;;;2.70;;
53411;SDS011;39307;52.870;13.660;2023-07-13T01:05:48;5.07;;;2.40;;
53411;SDS011;39307;52.870;13.660;2023-07-13T01:08:15;8.00;;;3.20;;
53411;SDS011;39307;52.870;13.660;2023-07-13T01:10:50;5.47;;;2.53;;
53411;SDS011;39307;52.870;13.660;2023-07-13T01:13:18;7.18;;;2.85;;
53411;SDS011;39307;52.870;13.660;2023-07-13T01:15:45;4.78;;;2.50;;
53411;SDS011;39307;52.870;13.660;2023-07-13T01:18:17;5.07;;;2.50;;
53411;SDS011;39307;52.870;13.660;2023-07-13T01:20:57;5.30;;;2.83;;
53411;SDS011;39307;52.870;13.660;2023-07-13T01:23:25;5.47;;;2.78;;
53411;SDS011;39307;52.870;13.660;2023-07-13T01:25:52;6.55;;;3.10;;
53411;SDS011;39307;52.870;13.660;2023-07-13T01:28:19;5.68;;;2.80;;
53411;SDS011;39307;52.870;13.660;2023-07-13T01:30:46;7.28;;;3.03;;
53411;SDS011;39307;52.870;13.660;2023-07-13T01:33:13;5.55;;;2.80;;
53411;SDS011;39307;52.870;13.660;2023-07-13T01:35:41;6.80;;;2.80;;
53411;SDS011;39307;52.870;13.660;2023-07-13T01:38:08;5.55;;;2.90;;
53411;SDS011;39307;52.870;13.660;2023-07-13T01:40:36;5.90;;;2.70;;
53411;SDS011;39307;52.870;13.660;2023-07-13T01:43:03;5.97;;;3.15;;
53411;SDS011;39307;52.870;13.660;2023-07-13T01:45:30;5.77;;;2.97;;
53411;SDS011;39307;52.870;13.660;2023-07-13T01:47:57;5.55;;;2.88;;
53411;SDS011;39307;52.870;13.660;2023-07-13T01:50:24;5.43;;;3.00;;
53411;SDS011;39307;52.870;13.660;2023-07-13T01:52:50;5.28;;;3.00;;
53411;SDS011;39307;52.870;13.660;2023-07-13T01:55:17;6.30;;;3.10;;
53411;SDS011;39307;52.870;13.660;2023-07-13T01:57:43;6.63;;;3.17;;
53411;SDS011;39307;52.870;13.660;2023-07-13T02:00:09;8.52;;;2.90;;
53411;SDS011;39307;52.870;13.660;2023-07-13T02:02:36;7.45;;;3.30;;
53411;SDS011;39307;52.870;13.660;2023-07-13T02:05:03;6.03;;;3.17;;
53411;SDS011;39307;52.870;13.660;2023-07-13T02:07:29;6.13;;;3.20;;
53411;SDS011;39307;52.870;13.660;2023-07-13T02:09:55;6.07;;;3.10;;
53411;SDS011;39307;52.870;13.660;2023-07-13T02:12:22;7.38;;;3.00;;
53411;SDS011;39307;52.870;13.660;2023-07-13T02:14:48;5.30;;;3.00;;
53411;SDS011;39307;52.870;13.660;2023-07-13T02:17:14;5.75;;;3.00;;
53411;SDS011;39307;52.870;13.660;2023-07-13T02:19:41;5.93;;;3.00;;
53411;SDS011;39307;52.870;13.660;2023-07-13T02:22:07;6.03;;;3.00;;
53411;SDS011;39307;52.870;13.660;2023-07-13T02:24:33;5.70;;;2.90;;
53411;SDS011;39307;52.870;13.660;2023-07-13T02:26:59;5.80;;;2.90;;
53411;SDS011;39307;52.870;13.660;2023-07-13T02:29:25;7.17;;;3.23;;
53411;SDS011;39307;52.870;13.660;2023-07-13T02:31:52;5.55;;;3.08;;
53411;SDS011;39307;52.870;13.660;2023-07-13T02:34:18;7.37;;;3.10;;
53411;SDS011;39307;52.870;13.660;2023-07-13T02:36:44;6.20;;;3.03;;
53411;SDS011;39307;52.870;13.660;2023-07-13T02:39:11;5.67;;;3.07;;
53411;SDS011;39307;52.870;13.660;2023-07-13T02:41:39;8.70;;;3.35;;
53411;SDS011;39307;52.870;13.660;2023-07-13T02:44:05;5.53;;;3.10;;
53411;SDS011;39307;52.870;13.660;2023-07-13T02:46:35;7.00;;;3.40;;
53411;SDS011;39307;52.870;13.660;2023-07-13T02:49:02;7.10;;;3.25;;
53411;SDS011;39307;52.870;13.660;2023-07-13T02:51:29;7.55;;;3.53;;
53411;SDS011;39307;52.870;13.660;2023-07-13T02:53:55;5.90;;;3.50;;
53411;SDS011;39307;52.870;13.660;2023-07-13T02:56:22;6.50;;;3.40;;
53411;SDS011;39307;52.870;13.660;2023-07-13T02:58:51;7.90;;;3.75;;
53411;SDS011;39307;52.870;13.660;2023-07-13T03:01:18;7.47;;;3.70;;
53411;SDS011;39307;52.870;13.660;2023-07-13T03:03:50;7.20;;;3.80;;
53411;SDS011;39307;52.870;13.660;2023-07-13T03:06:17;7.67;;;3.60;;
53411;SDS011;39307;52.870;13.660;2023-07-13T03:08:44;6.45;;;3.40;;
53411;SDS011;39307;52.870;13.660;2023-07-13T03:11:12;5.90;;;3.58;;
53411;SDS011;39307;52.870;13.660;2023-07-13T03:13:41;5.90;;;3.40;;
53411;SDS011;39307;52.870;13.660;2023-07-13T03:16:08;5.80;;;3.60;;
53411;SDS011;39307;52.870;13.660;2023-07-13T03:18:36;6.00;;;3.35;;
53411;SDS011;39307;52.870;13.660;2023-07-13T03:21:03;5.53;;;3.50;;
53411;SDS011;39307;52.870;13.660;2023-07-13T03:23:30;6.67;;;3.60;;
53411;SDS011;39307;52.870;13.660;2023-07-13T03:26:04;8.63;;;3.70;;
53411;SDS011;39307;52.870;13.660;2023-07-13T03:28:33;5.70;;;3.33;;
53411;SDS011;39307;52.870;13.660;2023-07-13T03:31:13;6.57;;;3.75;;
53411;SDS011;39307;52.870;13.660;2023-07-13T03:33:42;5.95;;;3.30;;
53411;SDS011;39307;52.870;13.660;2023-07-13T03:36:12;6.10;;;3.38;;
53411;SDS011;39307;52.870;13.660;2023-07-13T03:38:41;6.90;;;3.50;;
53411;SDS011;39307;52.870;13.660;2023-07-13T03:41:07;7.43;;;3.70;;
53411;SDS011;39307;52.870;13.660;2023-07-13T03:43:33;7.03;;;3.80;;
53411;SDS011;39307;52.870;13.660;2023-07-13T03:45:59;5.70;;;3.57;;
53411;SDS011;39307;52.870;13.660;2023-07-13T03:48:25;5.80;;;3.50;;
53411;SDS011;39307;52.870;13.660;2023-07-13T03:50:52;5.95;;;3.67;;
53411;SDS011;39307;52.870;13.660;2023-07-13T03:53:18;8.65;;;3.78;;
53411;SDS011;39307;52.870;13.660;2023-07-13T03:55:44;6.80;;;3.72;;
53411;SDS011;39307;52.870;13.660;2023-07-13T03:58:24;7.60;;;3.90;;
53411;SDS011;39307;52.870;13.660;2023-07-13T04:00:56;6.72;;;3.58;;
53411;SDS011;39307;52.870;13.660;2023-07-13T04:03:22;6.18;;;3.85;;
53411;SDS011;39307;52.870;13.660;2023-07-13T04:05:49;7.32;;;3.88;;
53411;SDS011;39307;52.870;13.660;2023-07-13T04:08:16;6.67;;;3.93;;
53411;SDS011;39307;52.870;13.660;2023-07-13T04:10:42;7.38;;;3.75;;
53411;SDS011;39307;52.870;13.660;2023-07-13T04:13:09;6.72;;;3.88;;
53411;SDS011;39307;52.870;13.660;2023-07-13T04:15:39;7.57;;;3.55;;
53411;SDS011;39307;52.870;13.660;2023-07-13T04:18:05;10.82;;;6.53;;
53411;SDS011;39307;52.870;13.660;2023-07-13T04:20:31;9.23;;;4.53;;
53411;SDS011;39307;52.870;13.660;2023-07-13T04:22:57;6.45;;;3.92;;
53411;SDS011;39307;52.870;13.660;2023-07-13T04:25:24;6.50;;;3.78;;
53411;SDS011;39307;52.870;13.660;2023-07-13T04:27:50;6.57;;;3.90;;
53411;SDS011;39307;52.870;13.660;2023-07-13T04:30:16;7.97;;;4.85;;
53411;SDS011;39307;52.870;13.660;2023-07-13T04:32:42;7.85;;;4.63;;
53411;SDS011;39307;52.870;13.660;2023-07-13T04:35:08;9.75;;;5.90;;
53411;SDS011;39307;52.870;13.660;2023-07-13T04:37:35;8.18;;;4.35;;
53411;SDS011;39307;52.870;13.660;2023-07-13T04:40:01;8.05;;;4.13;;
53411;SDS011;39307;52.870;13.660;2023-07-13T04:42:31;6.43;;;3.77;;
53411;SDS011;39307;52.870;13.660;2023-07-13T04:44:57;7.40;;;3.95;;
53411;SDS011;39307;52.870;13.660;2023-07-13T04:47:23;7.03;;;3.63;;
53411;SDS011;39307;52.870;13.660;2023-07-13T04:49:50;6.07;;;3.38;;
53411;SDS011;39307;52.870;13.660;2023-07-13T04:52:16;10.40;;;4.10;;
53411;SDS011;39307;52.870;13.660;2023-07-13T04:54:42;7.35;;;3.80;;
53411;SDS011;39307;52.870;13.660;2023-07-13T04:57:08;13.98;;;3.95;;
53411;SDS011;39307;52.870;13.660;2023-07-13T04:59:34;46.17;;;6.82;;
53411;SDS011;39307;52.870;13.660;2023-07-13T05:02:01;42.45;;;6.82;;
53411;SDS011;39307;52.870;13.660;2023-07-13T05:04:27;27.70;;;5.40;;
53411;SDS011;39307;52.870;13.660;2023-07-13T05:06:53;8.88;;;3.47;;
53411;SDS011;39307;52.870;13.660;2023-07-13T05:09:19;10.13;;;3.47;;
53411;SDS011;39307;52.870;13.660;2023-07-13T05:11:46;6.97;;;3.05;;
53411;SDS011;39307;52.870;13.660;2023-07-13T05:14:12;6.18;;;3.00;;
53411;SDS011;39307;52.870;13.660;2023-07-13T05:16:38;11.85;;;3.13;;
53411;SDS011;39307;52.870;13.660;2023-07-13T05:19:05;7.03;;;2.90;;
53411;SDS011;39307;52.870;13.660;2023-07-13T05:21:31;7.57;;;2.90;;
53411;SDS011;39307;52.870;13.660;2023-07-13T05:23:57;13.90;;;3.83;;
53411;SDS011;39307;52.870;13.660;2023-07-13T05:26:23;7.18;;;2.72;;
53411;SDS011;39307;52.870;13.660;2023-07-13T05:28:50;5.72;;;2.75;;
53411;SDS011;39307;52.870;13.660;2023-07-13T05:31:16;5.22;;;2.45;;
53411;SDS011;39307;52.870;13.660;2023-07-13T05:33:43;5.40;;;2.60;;
53411;SDS011;39307;52.870;13.660;2023-07-13T05:36:09;5.57;;;2.33;;
53411;SDS011;39307;52.870;13.660;2023-07-13T05:38:36;5.18;;;2.40;;
53411;SDS011;39307;52.870;13.660;2023-07-13T05:41:02;4.32;;;2.28;;
53411;SDS011;39307;52.870;13.660;2023-07-13T05:43:28;4.32;;;1.92;;
53411;SDS011;39307;52.870;13.660;2023-07-13T05:45:55;5.25;;;2.55;;
53411;SDS011;39307;52.870;13.660;2023-07-13T05:48:23;5.13;;;2.25;;
53411;SDS011;39307;52.870;13.660;2023-07-13T05:50:49;27.13;;;4.65;;
53411;SDS011;39307;52.870;13.660;2023-07-13T05:53:16;23.57;;;4.00;;
53411;SDS011;39307;52.870;13.660;2023-07-13T05:55:43;26.55;;;4.00;;
53411;SDS011;39307;52.870;13.660;2023-07-13T05:58:11;12.15;;;2.22;;
53411;SDS011;39307;52.870;13.660;2023-07-13T06:00:37;6.63;;;2.37;;
53411;SDS011;39307;52.870;13.660;2023-07-13T06:03:04;6.50;;;2.40;;
53411;SDS011;39307;52.870;13.660;2023-07-13T06:05:30;5.15;;;2.10;;
53411;SDS011;39307;52.870;13.660;2023-07-13T06:07:57;5.97;;;2.63;;
53411;SDS011;39307;52.870;13.660;2023-07-13T06:10:23;18.17;;;3.17;;
53411;SDS011;39307;52.870;13.660;2023-07-13T06:12:50;28.27;;;4.35;;
53411;SDS011;39307;52.870;13.660;2023-07-13T06:15:16;7.00;;;1.90;;
53411;SDS011;39307;52.870;13.660;2023-07-13T06:17:43;5.93;;;2.00;;
53411;SDS011;39307;52.870;13.660;2023-07-13T06:20:09;12.63;;;2.28;;
53411;SDS011;39307;52.870;13.660;2023-07-13T06:22:36;6.50;;;2.17;;
53411;SDS011;39307;52.870;13.660;2023-07-13T06:25:02;6.15;;;2.00;;
53411;SDS011;39307;52.870;13.660;2023-07-13T06:27:28;16.00;;;3.50;;
53411;SDS011;39307;52.870;13.660;2023-07-13T06:29:54;12.90;;;2.88;;
53411;SDS011;39307;52.870;13.660;2023-07-13T06:32:20;8.73;;;1.98;;
53411;SDS011;39307;52.870;13.660;2023-07-13T06:34:47;5.45;;;1.85;;
53411;SDS011;39307;52.870;13.660;2023-07-13T06:37:13;5.72;;;1.92;;
53411;SDS011;39307;52.870;13.660;2023-07-13T06:39:39;4.65;;;1.70;;
53411;SDS011;39307;52.870;13.660;2023-07-13T06:42:05;4.40;;;1.80;;
53411;SDS011;39307;52.870;13.660;2023-07-13T06:44:32;5.80;;;1.83;;
53411;SDS011;39307;52.870;13.660;2023-07-13T06:46:58;4.43;;;1.70;;
53411;SDS011;39307;52.870;13.660;2023-07-13T06:49:24;5.05;;;1.70;;
53411;SDS011;39307;52.870;13.660;2023-07-13T06:51:51;4.45;;;1.80;;
53411;SDS011;39307;52.870;13.660;2023-07-13T06:54:17;5.85;;;2.05;;
53411;SDS011;39307;52.870;13.660;2023-07-13T06:56:43;11.10;;;2.85;;
53411;SDS011;39307;52.870;13.660;2023-07-13T06:59:09;10.35;;;2.30;;
53411;SDS011;39307;52.870;13.660;2023-07-13T07:01:36;4.18;;;1.73;;
53411;SDS011;39307;52.870;13.660;2023-07-13T07:04:03;5.38;;;1.85;;
53411;SDS011;39307;52.870;13.660;2023-07-13T07:06:29;4.63;;;1.67;;
53411;SDS011;39307;52.870;13.660;2023-07-13T07:08:55;4.30;;;1.80;;
53411;SDS011;39307;52.870;13.660;2023-07-13T07:11:22;5.28;;;2.00;;
53411;SDS011;39307;52.870;13.660;2023-07-13T07:13:50;4.47;;;1.87;;
53411;SDS011;39307;52.870;13.660;2023-07-13T07:16:17;5.15;;;1.80;;
53411;SDS011;39307;52.870;13.660;2023-07-13T07:18:44;4.40;;;1.80;;
53411;SDS011;39307;52.870;13.660;2023-07-13T07:21:11;4.95;;;1.85;;
53411;SDS011;39307;52.870;13.660;2023-07-13T07:23:38;4.80;;;1.83;;
53411;SDS011;39307;52.870;13.660;2023-07-13T07:26:04;4.20;;;1.60;;
53411;SDS011;39307;52.870;13.660;2023-07-13T07:28:31;3.38;;;1.50;;
53411;SDS011;39307;52.870;13.660;2023-07-13T07:30:57;4.75;;;1.75;;
53411;SDS011;39307;52.870;13.660;2023-07-13T07:33:24;6.82;;;1.77;;
53411;SDS011;39307;52.870;13.660;2023-07-13T07:35:51;6.75;;;1.98;;
53411;SDS011;39307;52.870;13.660;2023-07-13T07:38:17;9.15;;;1.88;;
53411;SDS011;39307;52.870;13.660;2023-07-13T07:40:44;3.47;;;1.50;;
53411;SDS011;39307;52.870;13.660;2023-07-13T07:43:11;3.72;;;1.50;;
53411;SDS011;39307;52.870;13.660;2023-07-13T07:45:38;3.33;;;1.40;;
53411;SDS011;39307;52.870;13.660;2023-07-13T07:48:05;5.15;;;1.60;;
53411;SDS011;39307;52.870;13.660;2023-07-13T07:50:32;4.15;;;1.20;;
53411;SDS011;39307;52.870;13.660;2023-07-13T07:52:59;3.75;;;1.42;;
53411;SDS011;39307;52.870;13.660;2023-07-13T07:55:25;3.55;;;1.38;;
53411;SDS011;39307;52.870;13.660;2023-07-13T07:57:51;2.28;;;1.10;;
53411;SDS011;39307;52.870;13.660;2023-07-13T08:00:18;16.23;;;2.03;;
53411;SDS011;39307;52.870;13.660;2023-07-13T08:02:44;4.32;;;1.23;;
53411;SDS011;39307;52.870;13.660;2023-07-13T08:05:11;3.83;;;1.03;;
53411;SDS011;39307;52.870;13.660;2023-07-13T08:07:38;3.42;;;1.10;;
53411;SDS011;39307;52.870;13.660;2023-07-13T08:10:05;3.60;;;1.35;;
53411;SDS011;39307;52.870;13.660;2023-07-13T08:12:35;2.70;;;0.90;;
53411;SDS011;39307;52.870;13.660;2023-07-13T08:15:02;2.30;;;1.10;;
53411;SDS011;39307;52.870;13.660;2023-07-13T08:17:29;3.20;;;0.95;;
53411;SDS011;39307;52.870;13.660;2023-07-13T08:19:55;3.85;;;1.40;;
53411;SDS011;39307;52.870;13.660;2023-07-13T08:22:22;8.27;;;1.48;;
53411;SDS011;39307;52.870;13.660;2023-07-13T08:24:49;4.43;;;1.13;;
53411;SDS011;39307;52.870;13.660;2023-07-13T08:27:15;2.78;;;0.98;;
53411;SDS011;39307;52.870;13.660;2023-07-13T08:29:41;2.15;;;0.82;;
53411;SDS011;39307;52.870;13.660;2023-07-13T08:32:08;3.05;;;1.00;;
53411;SDS011;39307;52.870;13.660;2023-07-13T08:34:34;19.80;;;2.40;;
53411;SDS011;39307;52.870;13.660;2023-07-13T08:37:01;46.55;;;4.82;;
53411;SDS011;39307;52.870;13.660;2023-07-13T08:39:27;8.00;;;1.63;;
53411;SDS011;39307;52.870;13.660;2023-07-13T08:41:56;2.67;;;1.10;;
53411;SDS011;39307;52.870;13.660;2023-07-13T08:44:40;2.90;;;1.00;;
53411;SDS011;39307;52.870;13.660;2023-07-13T08:47:18;3.53;;;0.90;;
53411;SDS011;39307;52.870;13.660;2023-07-13T08:49:48;3.60;;;1.20;;
53411;SDS011;39307;52.870;13.660;2023-07-13T08:52:31;3.25;;;1.20;;
53411;SDS011;39307;52.870;13.660;2023-07-13T08:55:05;47.97;;;5.13;;
53411;SDS011;39307;52.870;13.660;2023-07-13T08:57:42;4.75;;;1.15;;
53411;SDS011;39307;52.870;13.660;2023-07-13T09:00:12;2.93;;;0.90;;
53411;SDS011;39307;52.870;13.660;2023-07-13T09:05:18;3.60;;;1.00;;
53411;SDS011;39307;52.870;13.660;2023-07-13T09:11:00;7.43;;;1.00;;
53411;SDS011;39307;52.870;13.660;2023-07-13T09:13:38;9.65;;;1.80;;
53411;SDS011;39307;52.870;13.660;2023-07-13T09:16:19;2.08;;;0.70;;
53411;SDS011;39307;52.870;13.660;2023-07-13T09:18:48;2.00;;;0.80;;
53411;SDS011;39307;52.870;13.660;2023-07-13T09:21:23;8.15;;;1.30;;
53411;SDS011;39307;52.870;13.660;2023-07-13T09:23:58;28.63;;;2.70;;
53411;SDS011;39307;52.870;13.660;2023-07-13T09:26:43;6.25;;;1.15;;
53411;SDS011;39307;52.870;13.660;2023-07-13T09:29:11;19.20;;;1.83;;
53411;SDS011;39307;52.870;13.660;2023-07-13T09:31:47;11.82;;;1.33;;
53411;SDS011;39307;52.870;13.660;2023-07-13T09:34:20;2.83;;;0.80;;
53411;SDS011;39307;52.870;13.660;2023-07-13T09:36:46;32.30;;;3.03;;
53411;SDS011;39307;52.870;13.660;2023-07-13T09:39:29;3.97;;;0.80;;
53411;SDS011;39307;52.870;13.660;2023-07-13T09:42:17;2.67;;;0.80;;
53411;SDS011;39307;52.870;13.660;2023-07-13T09:44:55;2.60;;;0.80;;
53411;SDS011;39307;52.870;13.660;2023-07-13T09:47:24;6.28;;;2.45;;
53411;SDS011;39307;52.870;13.660;2023-07-13T09:50:00;16.88;;;2.17;;
53411;SDS011;39307;52.870;13.660;2023-07-13T09:52:46;3.40;;;1.00;;
53411;SDS011;39307;52.870;13.660;2023-07-13T09:57:57;3.25;;;0.80;;
53411;SDS011;39307;52.870;13.660;2023-07-13T10:00:29;2.97;;;0.80;;
53411;SDS011;39307;52.870;13.660;2023-07-13T10:03:03;2.05;;;0.93;;
53411;SDS011;39307;52.870;13.660;2023-07-13T10:05:40;3.22;;;1.00;;
53411;SDS011;39307;52.870;13.660;2023-07-13T10:08:25;1.70;;;0.75;;
53411;SDS011;39307;52.870;13.660;2023-07-13T10:10:57;2.92;;;0.98;;
53411;SDS011;39307;52.870;13.660;2023-07-13T10:13:36;3.72;;;1.20;;
53411;SDS011;39307;52.870;13.660;2023-07-13T10:16:07;3.38;;;1.02;;
53411;SDS011;39307;52.870;13.660;2023-07-13T10:18:55;2.90;;;1.08;;
53411;SDS011;39307;52.870;13.660;2023-07-13T10:21:26;3.75;;;1.10;;
53411;SDS011;39307;52.870;13.660;2023-07-13T10:24:21;3.05;;;0.98;;
53411;SDS011;39307;52.870;13.660;2023-07-13T10:27:08;3.80;;;0.90;;
53411;SDS011;39307;52.870;13.660;2023-07-13T10:29:59;2.65;;;0.93;;
53411;SDS011;39307;52.870;13.660;2023-07-13T10:32:31;2.25;;;0.85;;
53411;SDS011;39307;52.870;13.660;2023-07-13T10:34:58;31.35;;;2.67;;
53411;SDS011;39307;52.870;13.660;2023-07-13T10:37:26;19.08;;;1.77;;
53411;SDS011;39307;52.870;13.660;2023-07-13T10:39:57;3.53;;;0.93;;
53411;SDS011;39307;52.870;13.660;2023-07-13T10:42:33;2.72;;;0.75;;
53411;SDS011;39307;52.870;13.660;2023-07-13T10:45:23;4.43;;;0.90;;
53411;SDS011;39307;52.870;13.660;2023-07-13T10:47:51;10.80;;;1.73;;
53411;SDS011;39307;52.870;13.660;2023-07-13T10:50:20;3.13;;;0.90;;
53411;SDS011;39307;52.870;13.660;2023-07-13T10:52:49;3.97;;;1.00;;
53411;SDS011;39307;52.870;13.660;2023-07-13T11:01:10;9.17;;;1.53;;
53411;SDS011;39307;52.870;13.660;2023-07-13T11:04:00;4.95;;;1.23;;
53411;SDS011;39307;52.870;13.660;2023-07-13T11:06:32;5.18;;;1.00;;
53411;SDS011;39307;52.870;13.660;2023-07-13T11:09:50;4.07;;;1.20;;
53411;SDS011;39307;52.870;13.660;2023-07-13T11:12:01;8.32;;;1.40;;
53411;SDS011;39307;52.870;13.660;2023-07-13T11:14:36;23.92;;;3.15;;
53411;SDS011;39307;52.870;13.660;2023-07-13T11:23:07;2.22;;;0.90;;
53411;SDS011;39307;52.870;13.660;2023-07-13T11:25:40;33.63;;;3.47;;
53411;SDS011;39307;52.870;13.660;2023-07-13T11:28:12;3.20;;;0.93;;
53411;SDS011;39307;52.870;13.660;2023-07-13T11:33:19;3.17;;;1.10;;
53411;SDS011;39307;52.870;13.660;2023-07-13T11:36:06;2.72;;;1.00;;
53411;SDS011;39307;52.870;13.660;2023-07-13T11:38:41;4.00;;;1.10;;
53411;SDS011;39307;52.870;13.660;2023-07-13T11:43:49;24.02;;;3.33;;
53411;SDS011;39307;52.870;13.660;2023-07-13T11:46:23;9.57;;;1.90;;
53411;SDS011;39307;52.870;13.660;2023-07-13T11:48:53;15.93;;;2.25;;
53411;SDS011;39307;52.870;13.660;2023-07-13T11:51:25;14.80;;;2.35;;
53411;SDS011;39307;52.870;13.660;2023-07-13T11:53:57;4.25;;;1.20;;
53411;SDS011;39307;52.870;13.660;2023-07-13T11:56:29;3.28;;;1.20;;
53411;SDS011;39307;52.870;13.660;2023-07-13T11:58:56;3.25;;;1.02;;
53411;SDS011;39307;52.870;13.660;2023-07-13T12:01:27;3.63;;;1.20;;
53411;SDS011;39307;52.870;13.660;2023-07-13T12:04:01;4.28;;;1.40;;
53411;SDS011;39307;52.870;13.660;2023-07-13T12:06:30;3.25;;;1.13;;
53411;SDS011;39307;52.870;13.660;2023-07-13T12:09:00;14.57;;;2.63;;
53411;SDS011;39307;52.870;13.660;2023-07-13T12:11:29;4.93;;;1.33;;
53411;SDS011;39307;52.870;13.660;2023-07-13T12:13:56;4.47;;;1.13;;
53411;SDS011;39307;52.870;13.660;2023-07-13T12:16:29;5.05;;;1.10;;
53411;SDS011;39307;52.870;13.660;2023-07-13T12:18:57;3.50;;;1.17;;
53411;SDS011;39307;52.870;13.660;2023-07-13T12:21:29;3.40;;;0.95;;
53411;SDS011;39307;52.870;13.660;2023-07-13T12:23:58;3.10;;;1.03;;
53411;SDS011;39307;52.870;13.660;2023-07-13T12:26:25;8.63;;;1.65;;
53411;SDS011;39307;52.870;13.660;2023-07-13T12:28:52;28.93;;;3.83;;
53411;SDS011;39307;52.870;13.660;2023-07-13T12:33:58;4.55;;;1.10;;
53411;SDS011;39307;52.870;13.660;2023-07-13T12:36:25;6.45;;;1.40;;
53411;SDS011;39307;52.870;13.660;2023-07-13T12:39:04;62.93;;;8.13;;
53411;SDS011;39307;52.870;13.660;2023-07-13T12:41:52;14.37;;;2.07;;
53411;SDS011;39307;52.870;13.660;2023-07-13T12:44:23;9.05;;;1.83;;
53411;SDS011;39307;52.870;13.660;2023-07-13T12:47:02;5.82;;;1.50;;
53411;SDS011;39307;52.870;13.660;2023-07-13T12:49:31;3.78;;;1.13;;
53411;SDS011;39307;52.870;13.660;2023-07-13T12:51:59;4.22;;;1.20;;
53411;SDS011;39307;52.870;13.660;2023-07-13T12:54:27;3.92;;;1.27;;
53411;SDS011;39307;52.870;13.660;2023-07-13T12:56:55;4.15;;;1.38;;
53411;SDS011;39307;52.870;13.660;2023-07-13T12:59:23;3.42;;;1.33;;
53411;SDS011;39307;52.870;13.660;2023-07-13T13:01:55;3.13;;;1.30;;
53411;SDS011;39307;52.870;13.660;2023-07-13T13:04:21;4.47;;;1.65;;
53411;SDS011;39307;52.870;13.660;2023-07-13T13:06:48;3.33;;;1.30;;
53411;SDS011;39307;52.870;13.660;2023-07-13T13:09:26;35.05;;;4.20;;
53411;SDS011;39307;52.870;13.660;2023-07-13T13:11:52;4.77;;;1.33;;
53411;SDS011;39307;52.870;13.660;2023-07-13T13:14:18;3.50;;;1.20;;
53411;SDS011;39307;52.870;13.660;2023-07-13T13:16:48;3.33;;;1.15;;
53411;SDS011;39307;52.870;13.660;2023-07-13T13:19:19;2.33;;;1.17;;
53411;SDS011;39307;52.870;13.660;2023-07-13T13:21:49;42.43;;;5.47;;
53411;SDS011;39307;52.870;13.660;2023-07-13T13:24:21;18.60;;;3.08;;
53411;SDS011;39307;52.870;13.660;2023-07-13T13:26:52;7.72;;;1.70;;
53411;SDS011;39307;52.870;13.660;2023-07-13T13:29:22;4.97;;;1.42;;
53411;SDS011;39307;52.870;13.660;2023-07-13T13:31:50;4.28;;;1.38;;
53411;SDS011;39307;52.870;13.660;2023-07-13T13:34:17;3.83;;;1.40;;
53411;SDS011;39307;52.870;13.660;2023-07-13T13:36:44;11.45;;;1.90;;
53411;SDS011;39307;52.870;13.660;2023-07-13T13:39:18;7.13;;;1.60;;
53411;SDS011;39307;52.870;13.660;2023-07-13T13:41:47;4.22;;;1.50;;
53411;SDS011;39307;52.870;13.660;2023-07-13T13:44:15;7.13;;;1.60;;
53411;SDS011;39307;52.870;13.660;2023-07-13T13:46:43;16.90;;;3.15;;
53411;SDS011;39307;52.870;13.660;2023-07-13T13:49:15;6.90;;;1.70;;
53411;SDS011;39307;52.870;13.660;2023-07-13T13:51:44;3.72;;;1.38;;
53411;SDS011;39307;52.870;13.660;2023-07-13T13:54:11;11.43;;;1.92;;
53411;SDS011;39307;52.870;13.660;2023-07-13T13:56:39;6.95;;;1.52;;
53411;SDS011;39307;52.870;13.660;2023-07-13T13:59:09;7.38;;;1.60;;
53411;SDS011;39307;52.870;13.660;2023-07-13T14:01:35;2.70;;;1.40;;
53411;SDS011;39307;52.870;13.660;2023-07-13T14:04:02;4.17;;;1.33;;
53411;SDS011;39307;52.870;13.660;2023-07-13T14:06:29;3.50;;;1.50;;
53411;SDS011;39307;52.870;13.660;2023-07-13T14:08:55;3.97;;;1.50;;
53411;SDS011;39307;52.870;13.660;2023-07-13T14:11:21;4.75;;;1.70;;
53411;SDS011;39307;52.870;13.660;2023-07-13T14:13:49;4.47;;;1.67;;
53411;SDS011;39307;52.870;13.660;2023-07-13T14:16:20;4.60;;;1.20;;
53411;SDS011;39307;52.870;13.660;2023-07-13T14:18:47;13.35;;;2.33;;
53411;SDS011;39307;52.870;13.660;2023-07-13T14:21:18;5.15;;;1.38;;
53411;SDS011;39307;52.870;13.660;2023-07-13T14:23:47;4.30;;;1.50;;
53411;SDS011;39307;52.870;13.660;2023-07-13T14:26:15;4.28;;;1.30;;
53411;SDS011;39307;52.870;13.660;2023-07-13T14:28:44;5.23;;;1.70;;
53411;SDS011;39307;52.870;13.660;2023-07-13T14:31:13;16.30;;;3.17;;
53411;SDS011;39307;52.870;13.660;2023-07-13T14:33:40;4.37;;;1.37;;
53411;SDS011;39307;52.870;13.660;2023-07-13T14:36:48;10.10;;;2.47;;
53411;SDS011;39307;52.870;13.660;2023-07-13T14:39:10;10.88;;;2.25;;
53411;SDS011;39307;52.870;13.660;2023-07-13T14:41:40;10.88;;;1.73;;
53411;SDS011;39307;52.870;13.660;2023-07-13T14:44:13;8.27;;;1.70;;
53411;SDS011;39307;52.870;13.660;2023-07-13T14:46:41;4.70;;;1.40;;
53411;SDS011;39307;52.870;13.660;2023-07-13T14:49:13;4.88;;;1.40;;
53411;SDS011;39307;52.870;13.660;2023-07-13T14:51:41;6.90;;;1.60;;
53411;SDS011;39307;52.870;13.660;2023-07-13T14:54:08;16.05;;;2.03;;
53411;SDS011;39307;52.870;13.660;2023-07-13T14:56:35;44.97;;;5.95;;
53411;SDS011;39307;52.870;13.660;2023-07-13T14:59:01;3.63;;;1.20;;
53411;SDS011;39307;52.870;13.660;2023-07-13T15:01:27;15.73;;;2.53;;
53411;SDS011;39307;52.870;13.660;2023-07-13T15:03:54;4.05;;;1.40;;
53411;SDS011;39307;52.870;13.660;2023-07-13T15:06:20;23.87;;;2.83;;
53411;SDS011;39307;52.870;13.660;2023-07-13T15:08:47;9.20;;;2.30;;
53411;SDS011;39307;52.870;13.660;2023-07-13T15:11:13;3.58;;;1.48;;
53411;SDS011;39307;52.870;13.660;2023-07-13T15:13:41;9.52;;;1.40;;
53411;SDS011;39307;52.870;13.660;2023-07-13T15:16:15;7.28;;;1.45;;